Time;durP1;ratioP1;P1;durP2;ratioP2;P2;SDS_P1;SDS_P2;PMS_P1;PMS_P2;Temp;Humidity;BMP_temperature;BMP_pressure;BME280_temperature;BME280_humidity;BME280_pressure;Samples;Min_cycle;Max_cycle;Signal;HPM_P1;HPM_P2
2022/10/07 00:00:24;;;;;;;9.30;3.70;;;10.00;99.90;;;;;;5048723;28;20055;-61
2022/10/07 00:02:49;;;;;;;15.30;4.10;;;9.90;99.90;;;;;;5038651;28;20481;-61
2022/10/07 00:05:15;;;;;;;8.50;3.25;;;10.00;99.90;;;;;;5062137;28;20295;-61
2022/10/07 00:07:41;;;;;;;10.52;3.28;;;9.90;99.90;;;;;;5042154;28;20028;-61
2022/10/07 00:10:07;;;;;;;10.95;3.10;;;10.00;99.90;;;;;;5035594;28;20025;-61
2022/10/07 00:12:32;;;;;;;9.93;3.55;;;9.90;99.90;;;;;;5042124;28;20017;-61
2022/10/07 00:14:58;;;;;;;9.98;3.05;;;10.00;99.90;;;;;;5044214;28;20025;-61
2022/10/07 00:17:23;;;;;;;12.23;3.30;;;10.00;99.90;;;;;;5044962;28;20026;-61
2022/10/07 00:19:49;;;;;;;15.05;3.47;;;9.90;99.90;;;;;;5047642;28;20029;-61
2022/10/07 00:22:15;;;;;;;9.88;3.50;;;9.90;99.90;;;;;;5044798;28;20021;-62
2022/10/07 00:24:40;;;;;;;10.15;3.47;;;9.90;99.90;;;;;;5044809;28;20397;-61
2022/10/07 00:27:06;;;;;;;10.13;4.03;;;10.00;99.90;;;;;;5045716;28;20473;-61
2022/10/07 00:29:31;;;;;;;14.20;3.65;;;10.00;99.90;;;;;;5041672;28;20017;-61
2022/10/07 00:31:57;;;;;;;10.98;3.33;;;9.90;99.90;;;;;;5042965;28;20022;-61
2022/10/07 00:34:22;;;;;;;8.90;3.30;;;9.90;99.90;;;;;;5042906;28;20072;-61
2022/10/07 00:36:49;;;;;;;10.52;3.80;;;9.80;99.90;;;;;;5060169;28;20029;-61
2022/10/07 00:39:15;;;;;;;9.15;3.47;;;9.80;99.90;;;;;;5043098;28;20028;-61
2022/10/07 00:41:49;;;;;;;15.05;4.07;;;9.80;99.90;;;;;;5056953;28;20085;-61
2022/10/07 00:44:37;;;;;;;14.77;3.40;;;9.80;99.90;;;;;;5040769;28;20060;-61
2022/10/07 00:47:21;;;;;;;11.70;3.80;;;9.80;99.90;;;;;;5040031;28;20486;-61
2022/10/07 00:50:02;;;;;;;9.60;4.32;;;9.70;99.90;;;;;;5046546;28;20021;-61
2022/10/07 00:52:31;;;;;;;10.70;3.38;;;9.80;99.90;;;;;;5059594;28;20021;-61
2022/10/07 00:55:01;;;;;;;9.52;3.30;;;9.70;99.90;;;;;;5044267;28;20234;-61
2022/10/07 00:57:30;;;;;;;14.18;4.10;;;9.80;99.90;;;;;;5047887;28;20454;-61
2022/10/07 00:59:57;;;;;;;15.20;3.97;;;9.70;99.90;;;;;;5041606;28;20503;-61
2022/10/07 01:02:24;;;;;;;10.82;3.33;;;9.70;99.90;;;;;;5048225;28;20041;-61
2022/10/07 01:04:52;;;;;;;13.95;3.97;;;9.70;99.90;;;;;;5044157;28;20021;-61
2022/10/07 01:07:20;;;;;;;14.00;3.78;;;9.60;99.90;;;;;;5040110;28;20029;-61
2022/10/07 01:09:49;;;;;;;16.20;3.92;;;9.60;99.90;;;;;;5044515;28;20493;-61
2022/10/07 01:12:27;;;;;;;13.47;4.43;;;9.60;99.90;;;;;;5046828;28;20173;-61
2022/10/07 01:15:07;;;;;;;13.50;3.63;;;9.60;99.90;;;;;;5046460;28;20035;-61
2022/10/07 01:18:08;;;;;;;12.02;3.42;;;9.60;99.90;;;;;;5042922;28;20017;-61
2022/10/07 01:20:39;;;;;;;14.57;4.07;;;9.60;99.90;;;;;;5030412;28;20037;-61
2022/10/07 01:23:11;;;;;;;16.20;3.67;;;9.50;99.90;;;;;;5042001;28;20033;-61
2022/10/07 01:26:17;;;;;;;8.90;3.45;;;9.50;99.90;;;;;;5044832;28;20065;-61
2022/10/07 01:28:48;;;;;;;12.85;3.45;;;9.50;99.90;;;;;;4999248;28;20125;-61
2022/10/07 01:31:19;;;;;;;15.18;3.72;;;9.50;99.90;;;;;;5041505;28;20029;-61
2022/10/07 01:33:46;;;;;;;16.40;3.50;;;9.50;99.90;;;;;;5057501;28;20033;-61
2022/10/07 01:36:16;;;;;;;11.52;4.80;;;9.50;99.90;;;;;;5040007;28;20064;-61
2022/10/07 01:38:48;;;;;;;;;;;9.50;99.90;;;;;;5045587;28;20067;-61
2022/10/07 01:41:17;;;;;;;12.77;3.75;;;9.40;99.90;;;;;;5040275;28;19909;-61
2022/10/07 01:43:45;;;;;;;15.52;5.10;;;9.40;99.90;;;;;;5043374;28;20436;-61
2022/10/07 01:46:17;;;;;;;12.75;3.45;;;9.40;99.90;;;;;;5042221;28;20029;-61
2022/10/07 01:48:45;;;;;;;11.50;3.67;;;9.40;99.90;;;;;;5047583;28;20461;-61
2022/10/07 01:51:12;;;;;;;10.32;3.35;;;9.40;99.90;;;;;;5041399;28;20057;-61
2022/10/07 01:53:48;;;;;;;15.38;4.25;;;9.40;99.90;;;;;;5045581;28;20068;-61
2022/10/07 01:56:13;;;;;;;16.20;3.83;;;9.40;99.90;;;;;;5047521;28;20420;-61
2022/10/07 01:59:06;;;;;;;14.27;3.80;;;9.40;99.90;;;;;;5061004;28;20068;-61
2022/10/07 02:01:38;;;;;;;16.80;3.92;;;9.40;99.90;;;;;;5047485;28;20171;-61
2022/10/07 02:04:30;;;;;;;13.85;3.63;;;9.30;99.90;;;;;;5046499;28;20025;-61
2022/10/07 02:07:16;;;;;;;12.05;3.38;;;9.30;99.90;;;;;;5040593;28;20140;-61
2022/10/07 02:10:19;;;;;;;17.45;3.35;;;9.30;99.90;;;;;;5056450;28;20366;-61
2022/10/07 02:12:58;;;;;;;14.20;4.22;;;9.20;99.90;;;;;;5024199;28;20040;-61
2022/10/07 02:15:31;;;;;;;11.95;3.38;;;9.20;99.90;;;;;;5047266;28;20028;-61
2022/10/07 02:18:01;;;;;;;15.77;4.28;;;9.20;99.90;;;;;;5047881;28;20366;-61
2022/10/07 02:20:30;;;;;;;;;;;9.10;99.90;;;;;;5049142;28;20055;-61
2022/10/07 02:22:58;;;;;;;13.70;3.35;;;9.10;99.90;;;;;;5048209;28;19912;-61
2022/10/07 02:25:27;;;;;;;11.85;3.03;;;9.00;99.90;;;;;;5048486;28;20017;-61
2022/10/07 02:27:54;;;;;;;15.73;4.07;;;9.00;99.90;;;;;;5044966;28;20481;-61
2022/10/07 02:30:21;;;;;;;13.63;4.07;;;9.00;99.90;;;;;;5046470;28;20464;-61
2022/10/07 02:33:02;;;;;;;11.77;3.85;;;9.00;99.90;;;;;;5049340;28;20053;-61
2022/10/07 02:35:40;;;;;;;10.48;3.83;;;9.00;99.90;;;;;;5040274;28;20013;-61
2022/10/07 02:38:10;;;;;;;20.20;5.05;;;8.90;99.90;;;;;;5046680;28;20025;-61
2022/10/07 02:40:42;;;;;;;10.93;3.70;;;8.90;99.90;;;;;;5044221;28;20420;-61
2022/10/07 02:43:18;;;;;;;12.88;3.92;;;8.90;99.90;;;;;;5055133;28;20052;-61
2022/10/07 02:46:22;;;;;;;13.43;3.58;;;8.90;99.90;;;;;;5046541;28;20029;-61
2022/10/07 02:49:09;;;;;;;14.10;4.43;;;9.00;99.90;;;;;;5059717;28;20017;-61
2022/10/07 02:51:41;;;;;;;20.83;3.67;;;9.00;99.90;;;;;;5049471;28;20017;-61
2022/10/07 02:54:06;;;;;;;12.68;3.75;;;8.90;99.90;;;;;;5045771;28;20026;-61
2022/10/07 02:56:43;;;;;;;9.38;3.45;;;8.90;99.90;;;;;;5063377;28;20048;-61
2022/10/07 02:59:11;;;;;;;15.30;4.00;;;8.90;99.90;;;;;;5049295;28;20025;-61
2022/10/07 03:01:45;;;;;;;19.55;4.10;;;8.90;99.90;;;;;;5043775;28;20390;-61
2022/10/07 03:04:11;;;;;;;16.40;3.83;;;8.90;99.90;;;;;;5042576;28;20099;-61
2022/10/07 03:06:36;;;;;;;12.10;3.60;;;8.90;99.90;;;;;;5057627;28;20125;-61
2022/10/07 03:09:03;;;;;;;16.63;3.70;;;8.80;99.90;;;;;;5046447;28;20591;-61
2022/10/07 03:11:28;;;;;;;18.50;3.63;;;8.90;99.90;;;;;;5048144;28;20440;-61
2022/10/07 03:13:54;;;;;;;13.90;4.25;;;8.90;99.90;;;;;;5045158;28;20021;-61
2022/10/07 03:16:20;;;;;;;14.55;4.75;;;8.90;99.90;;;;;;5042491;28;20082;-61
2022/10/07 03:18:45;;;;;;;16.40;4.28;;;8.90;99.90;;;;;;5042005;28;20481;-61
2022/10/07 03:21:11;;;;;;;17.05;4.65;;;8.90;99.90;;;;;;5048255;28;20032;-61
2022/10/07 03:23:37;;;;;;;17.75;3.65;;;9.00;99.90;;;;;;5047986;28;20021;-61
2022/10/07 03:26:03;;;;;;;17.38;4.63;;;8.90;99.90;;;;;;5042788;28;20032;-61
2022/10/07 03:28:32;;;;;;;14.77;6.05;;;9.00;99.90;;;;;;5040717;28;20040;-61
2022/10/07 03:31:08;;;;;;;13.85;4.65;;;9.00;99.90;;;;;;5041427;28;20162;-61
2022/10/07 03:33:36;;;;;;;14.25;4.30;;;9.00;99.90;;;;;;5044231;28;20380;-61
2022/10/07 03:36:04;;;;;;;12.07;4.40;;;9.00;99.90;;;;;;5038572;28;20025;-61
2022/10/07 03:38:30;;;;;;;14.30;4.13;;;8.90;99.90;;;;;;5048852;28;20029;-61
2022/10/07 03:40:56;;;;;;;17.50;4.10;;;8.90;99.90;;;;;;5046784;28;20048;-61
2022/10/07 03:43:22;;;;;;;13.10;3.92;;;8.90;99.90;;;;;;5044968;28;20080;-61
2022/10/07 03:45:51;;;;;;;14.00;4.43;;;8.80;99.90;;;;;;5043896;28;20028;-61
2022/10/07 03:48:17;;;;;;;13.15;3.92;;;8.90;99.90;;;;;;5045401;28;20029;-61
2022/10/07 03:50:53;;;;;;;12.52;3.65;;;8.90;99.90;;;;;;5049160;28;20100;-61
2022/10/07 03:53:19;;;;;;;12.63;4.20;;;8.90;99.90;;;;;;5044198;28;20534;-61
2022/10/07 03:55:45;;;;;;;16.25;4.60;;;8.80;99.90;;;;;;5044158;28;20036;-61
2022/10/07 03:58:11;;;;;;;12.38;4.32;;;8.80;99.90;;;;;;5045993;28;20025;-61
2022/10/07 04:00:37;;;;;;;16.77;5.18;;;8.80;99.90;;;;;;5045637;28;20021;-61
2022/10/07 04:03:04;;;;;;;15.15;3.83;;;8.80;99.90;;;;;;5049007;28;20029;-61
2022/10/07 04:05:30;;;;;;;12.98;3.70;;;8.70;99.90;;;;;;5040742;28;20025;-61
2022/10/07 04:07:57;;;;;;;20.88;4.43;;;8.70;99.90;;;;;;5039420;28;20048;-61
2022/10/07 04:10:23;;;;;;;11.57;3.25;;;8.70;99.90;;;;;;5044576;28;20381;-61
2022/10/07 04:12:50;;;;;;;16.83;4.38;;;8.70;99.90;;;;;;5045866;28;20035;-61
2022/10/07 04:15:16;;;;;;;12.00;4.40;;;8.70;99.90;;;;;;5043155;28;20021;-61
2022/10/07 04:17:44;;;;;;;10.70;3.42;;;8.70;99.90;;;;;;5043968;28;20040;-61
2022/10/07 04:20:11;;;;;;;14.45;4.38;;;8.70;99.90;;;;;;5046477;28;20055;-61
2022/10/07 04:22:36;;;;;;;15.35;4.28;;;8.70;99.90;;;;;;5046136;28;20029;-61
2022/10/07 04:27:52;;;;;;;15.00;3.85;;;8.70;99.90;;;;;;5042289;28;20512;-61
2022/10/07 04:30:19;;;;;;;16.73;4.47;;;8.60;99.90;;;;;;5058425;28;20025;-61
2022/10/07 04:32:44;;;;;;;14.98;3.97;;;8.60;99.90;;;;;;5044876;28;20480;-61
2022/10/07 04:35:10;;;;;;;13.45;4.05;;;8.60;99.90;;;;;;5042920;28;20021;-61
2022/10/07 04:37:36;;;;;;;18.50;4.75;;;8.60;99.90;;;;;;5047901;28;20049;-61
2022/10/07 04:40:01;;;;;;;14.75;3.80;;;8.60;99.90;;;;;;5045615;28;20025;-61
2022/10/07 04:45:11;;;;;;;14.77;4.57;;;8.60;99.90;;;;;;5048537;28;20067;-61
2022/10/07 04:47:44;;;;;;;11.32;3.45;;;8.60;99.90;;;;;;5047110;28;20029;-61
2022/10/07 04:50:09;;;;;;;16.27;5.10;;;8.60;99.90;;;;;;5038388;28;20049;-61
2022/10/07 04:52:39;;;;;;;14.05;4.30;;;8.60;99.90;;;;;;5039490;28;20021;-61
2022/10/07 04:55:05;;;;;;;13.23;4.03;;;8.60;99.90;;;;;;5039522;28;20024;-61
2022/10/07 04:57:31;;;;;;;16.10;4.28;;;8.60;99.90;;;;;;5059076;28;20499;-61
2022/10/07 04:59:57;;;;;;;19.95;4.70;;;8.60;99.90;;;;;;5045391;28;20033;-61
2022/10/07 05:02:22;;;;;;;10.68;3.92;;;8.60;99.90;;;;;;5041469;28;20025;-61
2022/10/07 05:04:48;;;;;;;17.90;4.05;;;8.60;99.90;;;;;;5048090;28;20048;-61
2022/10/07 05:07:13;;;;;;;17.63;3.70;;;8.60;99.90;;;;;;5058377;28;20118;-61
2022/10/07 05:09:40;;;;;;;13.80;4.32;;;8.60;99.90;;;;;;5041944;28;20021;-61
2022/10/07 05:12:05;;;;;;;17.23;4.55;;;8.60;99.90;;;;;;5046275;28;20025;-61
2022/10/07 05:14:32;;;;;;;14.82;4.00;;;8.60;99.90;;;;;;5040331;28;20021;-61
2022/10/07 05:16:58;;;;;;;17.20;4.80;;;8.60;99.90;;;;;;5056281;28;20162;-61
2022/10/07 05:19:24;;;;;;;15.88;4.20;;;8.60;99.90;;;;;;5051603;28;20108;-61
2022/10/07 05:21:50;;;;;;;13.07;4.38;;;8.60;99.90;;;;;;5038024;28;20489;-61
2022/10/07 05:24:16;;;;;;;19.42;3.80;;;8.60;99.90;;;;;;5054688;28;20106;-61
2022/10/07 05:26:42;;;;;;;27.65;5.28;;;8.60;99.90;;;;;;5055203;28;20037;-61
2022/10/07 05:29:08;;;;;;;13.80;3.70;;;8.60;99.90;;;;;;5042272;28;20124;-61
2022/10/07 05:31:33;;;;;;;15.23;4.32;;;8.60;99.90;;;;;;5054094;28;20025;-61
2022/10/07 05:33:59;;;;;;;14.60;3.97;;;8.60;99.90;;;;;;5040371;28;20028;-61
2022/10/07 05:36:25;;;;;;;13.10;4.32;;;8.60;99.90;;;;;;5043866;28;20444;-61
2022/10/07 05:38:57;;;;;;;15.25;4.07;;;8.60;99.90;;;;;;5053026;28;20033;-61
2022/10/07 05:41:31;;;;;;;18.33;3.70;;;8.60;99.90;;;;;;5053806;28;20468;-61
2022/10/07 05:43:56;;;;;;;13.13;3.17;;;8.60;99.90;;;;;;5042550;28;20037;-61
2022/10/07 05:46:22;;;;;;;17.42;4.35;;;8.60;99.90;;;;;;5054586;28;20404;-61
2022/10/07 05:48:50;;;;;;;18.27;4.45;;;8.60;99.90;;;;;;5055172;28;20019;-61
2022/10/07 05:51:17;;;;;;;12.73;3.80;;;8.60;99.90;;;;;;5055495;28;20481;-61
2022/10/07 05:53:45;;;;;;;12.55;3.88;;;8.60;99.90;;;;;;5054742;28;20033;-62
2022/10/07 05:56:20;;;;;;;12.20;3.95;;;8.60;99.90;;;;;;5054733;28;20033;-61
2022/10/07 05:58:46;;;;;;;13.52;4.45;;;8.60;99.90;;;;;;5053489;28;20515;-61
2022/10/07 06:01:15;;;;;;;13.70;3.75;;;8.60;99.90;;;;;;5051721;28;20029;-61
2022/10/07 06:03:41;;;;;;;17.00;3.40;;;8.60;99.90;;;;;;5050598;28;20025;-61
2022/10/07 06:06:07;;;;;;;12.60;3.90;;;8.60;99.90;;;;;;5046431;28;20040;-61
2022/10/07 06:08:34;;;;;;;16.45;3.53;;;8.60;99.90;;;;;;5050640;28;20021;-61
2022/10/07 06:13:50;;;;;;;12.55;3.88;;;8.60;99.90;;;;;;5054408;28;20082;-61
2022/10/07 06:16:16;;;;;;;13.57;4.03;;;8.60;99.90;;;;;;5050156;28;20021;-61
2022/10/07 06:18:41;;;;;;;13.27;4.25;;;8.70;99.90;;;;;;5053273;28;20040;-61
2022/10/07 06:21:07;;;;;;;12.35;3.08;;;8.70;99.90;;;;;;5053596;28;20493;-61
2022/10/07 06:23:33;;;;;;;16.33;3.53;;;8.70;99.90;;;;;;5051759;28;20473;-61
2022/10/07 06:26:05;;;;;;;19.92;4.60;;;8.70;99.90;;;;;;5051502;28;20493;-62
2022/10/07 06:28:40;;;;;;;13.30;3.10;;;8.80;99.90;;;;;;5050638;28;20028;-61
2022/10/07 06:31:11;;;;;;;13.52;4.55;;;8.90;99.90;;;;;;5054191;28;20021;-61
2022/10/07 06:33:37;;;;;;;9.25;2.90;;;8.90;99.90;;;;;;5051870;28;20056;-61
2022/10/07 06:36:05;;;;;;;16.25;3.97;;;9.00;99.90;;;;;;5052545;28;20029;-62
2022/10/07 06:38:31;;;;;;;17.60;3.58;;;9.00;99.90;;;;;;5052531;28;20489;-62
2022/10/07 06:40:57;;;;;;;14.18;3.53;;;9.00;99.90;;;;;;5046017;28;20474;-62
2022/10/07 06:43:27;;;;;;;14.45;3.78;;;9.10;99.90;;;;;;5035267;28;20045;-62
2022/10/07 06:45:58;;;;;;;12.27;3.72;;;9.20;99.90;;;;;;5048643;28;20024;-61
2022/10/07 06:48:24;;;;;;;21.80;6.03;;;9.20;99.90;;;;;;5049238;28;20028;-62
2022/10/07 06:50:51;;;;;;;15.68;5.10;;;9.20;99.90;;;;;;5045059;28;20025;-62
2022/10/07 06:53:17;;;;;;;17.52;4.38;;;9.30;99.90;;;;;;5050259;28;20017;-62
2022/10/07 06:55:43;;;;;;;20.10;4.63;;;9.20;99.90;;;;;;5051821;28;20025;-61
2022/10/07 06:58:08;;;;;;;17.63;4.30;;;9.30;99.90;;;;;;5050756;28;20099;-61
2022/10/07 07:00:34;;;;;;;17.23;4.50;;;9.30;99.90;;;;;;5050155;28;20117;-62
2022/10/07 07:03:02;;;;;;;18.33;4.85;;;9.40;99.90;;;;;;5051696;28;20473;-62
2022/10/07 07:05:35;;;;;;;17.55;4.57;;;9.50;99.90;;;;;;5050246;28;20397;-61
2022/10/07 07:08:00;;;;;;;14.80;5.15;;;9.50;99.90;;;;;;5051252;28;20017;-61
2022/10/07 07:10:26;;;;;;;16.73;4.22;;;9.60;99.90;;;;;;5052226;28;20029;-61
2022/10/07 07:12:53;;;;;;;19.23;5.75;;;9.60;99.90;;;;;;5050162;28;20079;-64
2022/10/07 07:15:19;;;;;;;22.42;5.30;;;9.70;99.90;;;;;;5051598;28;20067;-62
2022/10/07 07:17:44;;;;;;;19.85;7.13;;;9.80;99.90;;;;;;5049628;28;20033;-62
2022/10/07 07:20:10;;;;;;;14.75;5.38;;;9.90;99.90;;;;;;5052994;28;20430;-62
2022/10/07 07:22:36;;;;;;;20.83;5.50;;;10.00;99.90;;;;;;5040706;28;20466;-62
2022/10/07 07:25:02;;;;;;;15.60;5.35;;;10.10;99.90;;;;;;5049681;28;20400;-62
2022/10/07 07:27:28;;;;;;;14.73;4.57;;;10.10;99.90;;;;;;5059477;28;20025;-62
2022/10/07 07:29:53;;;;;;;12.18;3.13;;;10.20;99.90;;;;;;5063584;28;20376;-62
2022/10/07 07:32:19;;;;;;;18.63;3.63;;;10.30;99.90;;;;;;5053443;28;20462;-62
2022/10/07 07:34:44;;;;;;;11.57;3.50;;;10.40;99.90;;;;;;5052270;28;20021;-62
2022/10/07 07:37:10;;;;;;;11.82;3.42;;;10.50;99.90;;;;;;5064081;28;20037;-62
2022/10/07 07:39:36;;;;;;;13.05;3.75;;;10.50;99.90;;;;;;5058741;28;20063;-61
2022/10/07 07:42:01;;;;;;;18.40;3.70;;;10.60;99.90;;;;;;5057623;28;20060;-62
2022/10/07 07:44:28;;;;;;;20.58;3.42;;;10.60;99.90;;;;;;5056115;28;20025;-62
2022/10/07 07:46:54;;;;;;;12.93;3.03;;;10.70;99.90;;;;;;5047486;28;20025;-62
2022/10/07 07:49:21;;;;;;;12.50;3.30;;;10.80;99.90;;;;;;5050352;28;20366;-62
2022/10/07 07:51:48;;;;;;;9.07;3.08;;;10.80;99.90;;;;;;5047426;28;20021;-62
2022/10/07 07:54:14;;;;;;;18.20;3.08;;;10.80;99.90;;;;;;5049599;28;20021;-62
2022/10/07 07:56:40;;;;;;;13.10;2.83;;;10.90;99.90;;;;;;5048621;28;20170;-62
2022/10/07 07:59:07;;;;;;;13.40;3.38;;;10.90;99.90;;;;;;5048312;28;20029;-62
2022/10/07 08:01:34;;;;;;;18.13;3.30;;;11.00;99.90;;;;;;5048865;28;20021;-62
2022/10/07 08:04:00;;;;;;;12.25;3.17;;;11.10;99.90;;;;;;5051637;28;20083;-62
2022/10/07 08:06:27;;;;;;;13.20;3.45;;;11.20;99.90;;;;;;5062602;28;20028;-62
2022/10/07 08:08:57;;;;;;;13.60;2.88;;;11.40;99.90;;;;;;5063135;28;20023;-62
2022/10/07 08:11:23;;;;;;;16.80;3.90;;;11.50;99.90;;;;;;5051058;28;20013;-62
2022/10/07 08:13:49;;;;;;;14.90;3.90;;;11.60;99.90;;;;;;5049896;28;20389;-62
2022/10/07 08:16:18;;;;;;;11.00;2.83;;;11.70;99.90;;;;;;5048517;28;20021;-62
2022/10/07 08:18:46;;;;;;;9.35;2.47;;;11.90;99.90;;;;;;5050374;28;20032;-62
2022/10/07 08:21:12;;;;;;;14.85;3.00;;;12.00;99.90;;;;;;5052141;28;20052;-62
2022/10/07 08:23:38;;;;;;;13.57;3.03;;;12.10;99.90;;;;;;5034562;28;20025;-62
2022/10/07 08:26:05;;;;;;;15.55;3.45;;;12.30;99.90;;;;;;5031402;28;20489;-62
2022/10/07 08:28:32;;;;;;;16.25;2.90;;;12.40;99.90;;;;;;5042142;28;20070;-62
2022/10/07 08:31:03;;;;;;;13.25;3.10;;;12.50;99.90;;;;;;5031434;28;20048;-62
2022/10/07 08:33:32;;;;;;;18.88;3.67;;;12.60;99.90;;;;;;5045989;28;20025;-62
2022/10/07 08:35:59;;;;;;;10.33;2.37;;;12.60;99.90;;;;;;5052439;28;20025;-62
2022/10/07 08:38:32;;;;;;;9.60;2.42;;;12.60;99.90;;;;;;5036340;28;20029;-62
2022/10/07 08:41:12;;;;;;;11.07;2.65;;;12.70;99.90;;;;;;5040248;28;20445;-62
2022/10/07 08:43:44;;;;;;;9.80;2.33;;;12.80;99.90;;;;;;5038417;28;20106;-62
2022/10/07 08:46:14;;;;;;;10.25;3.30;;;12.90;99.60;;;;;;5052400;28;20028;-62
2022/10/07 08:48:42;;;;;;;12.88;4.07;;;13.00;99.70;;;;;;5038946;28;20017;-62
2022/10/07 08:51:14;;;;;;;9.98;3.03;;;13.10;99.30;;;;;;5038719;28;20022;-62
2022/10/07 08:53:43;;;;;;;12.32;2.72;;;13.10;99.30;;;;;;5044245;28;20496;-62
2022/10/07 08:56:13;;;;;;;8.30;2.87;;;13.20;99.30;;;;;;5047095;28;20103;-62
2022/10/07 08:59:08;;;;;;;14.23;3.33;;;13.30;99.40;;;;;;5045748;28;20025;-62
2022/10/07 09:02:11;;;;;;;11.35;3.85;;;13.50;99.00;;;;;;5049165;28;20070;-62
2022/10/07 09:04:58;;;;;;;13.95;3.28;;;13.60;98.40;;;;;;5048445;28;20029;-62
2022/10/07 09:07:31;;;;;;;11.75;2.85;;;13.80;98.50;;;;;;5055831;28;20032;-62
2022/10/07 09:10:08;;;;;;;6.80;2.20;;;14.00;98.30;;;;;;5049189;28;20025;-62
2022/10/07 09:12:42;;;;;;;10.32;2.72;;;14.30;97.90;;;;;;5054552;28;20043;-62
2022/10/07 09:15:18;;;;;;;9.98;3.13;;;14.50;97.30;;;;;;5053119;28;20021;-62
2022/10/07 09:17:52;;;;;;;13.27;2.13;;;14.70;96.40;;;;;;5051828;28;20041;-62
2022/10/07 09:20:19;;;;;;;11.07;3.30;;;14.80;96.00;;;;;;5052606;28;20020;-62
2022/10/07 09:22:51;;;;;;;11.80;2.85;;;14.90;95.80;;;;;;5051976;28;20043;-62
2022/10/07 09:25:22;;;;;;;13.57;3.10;;;15.10;95.50;;;;;;5051860;28;20473;-62
2022/10/07 09:27:50;;;;;;;8.45;2.50;;;15.20;95.20;;;;;;5052600;28;20116;-62
2022/10/07 09:30:16;;;;;;;12.77;1.88;;;15.30;94.70;;;;;;5054046;28;20092;-62
2022/10/07 09:32:45;;;;;;;10.20;2.00;;;15.40;94.30;;;;;;5053964;28;20028;-62
2022/10/07 09:35:13;;;;;;;8.55;2.00;;;15.40;93.90;;;;;;5068785;28;20043;-63
2022/10/07 09:37:59;;;;;;;12.63;2.25;;;15.60;93.60;;;;;;5055408;28;20036;-62
2022/10/07 09:43:30;;;;;;;12.18;1.92;;;15.80;92.80;;;;;;5054930;28;20052;-62
2022/10/07 09:45:57;;;;;;;11.77;2.35;;;16.00;92.60;;;;;;5048782;28;20480;-62
2022/10/07 09:48:27;;;;;;;8.05;1.67;;;16.10;91.90;;;;;;5052428;28;20103;-63
2022/10/07 09:51:10;;;;;;;;;;;16.10;92.00;;;;;;5048114;28;20398;-63
2022/10/07 09:53:57;;;;;;;9.52;2.45;;;16.20;91.60;;;;;;5040405;28;19919;-63
2022/10/07 09:56:40;;;;;;;11.68;1.90;;;16.20;91.00;;;;;;5050893;28;20057;-62
2022/10/07 09:59:20;;;;;;;10.65;2.00;;;16.20;91.00;;;;;;5047941;28;20029;-63
2022/10/07 10:01:50;;;;;;;;;;;16.20;91.00;;;;;;5050431;28;20029;-62
2022/10/07 10:04:23;;;;;;;10.15;1.60;;;16.20;91.10;;;;;;5051708;28;19909;-62
2022/10/07 10:06:50;;;;;;;9.63;1.65;;;16.20;91.10;;;;;;5050632;28;20090;-63
2022/10/07 10:09:21;;;;;;;7.85;1.40;;;16.30;91.00;;;;;;5032157;28;20024;-63
2022/10/07 10:12:03;;;;;;;11.63;1.88;;;16.40;90.40;;;;;;5038639;28;20031;-63
2022/10/07 10:14:39;;;;;;;7.85;1.60;;;16.50;90.00;;;;;;5046806;28;20021;-63
2022/10/07 10:17:05;;;;;;;8.18;2.03;;;16.70;90.00;;;;;;5049693;28;20112;-62
2022/10/07 10:19:30;;;;;;;8.07;1.50;;;16.90;89.80;;;;;;5052429;28;20364;-63
2022/10/07 10:21:57;;;;;;;5.80;1.17;;;17.20;89.30;;;;;;5052364;28;20044;-62
2022/10/07 10:27:21;;;;;;;9.82;1.85;;;18.80;85.40;;;;;;5034786;28;20079;-63
2022/10/07 10:29:47;;;;;;;9.20;2.05;;;19.80;82.30;;;;;;5047188;28;20029;-63
2022/10/07 10:32:39;;;;;;;9.98;1.90;;;20.90;78.70;;;;;;5048649;28;20143;-63
2022/10/07 10:35:27;;;;;;;6.15;1.20;;;21.60;70.40;;;;;;5050370;28;21609;-63
2022/10/07 10:38:16;;;;;;;7.15;1.30;;;22.20;69.30;;;;;;5051127;28;20056;-63
2022/10/07 10:40:45;;;;;;;10.70;2.25;;;25.30;65.20;;;;;;5040899;28;20033;-63
2022/10/07 10:43:35;;;;;;;5.30;2.22;;;27.50;53.10;;;;;;5054055;28;20513;-63
2022/10/07 10:46:34;;;;;;;8.15;2.13;;;27.90;50.60;;;;;;5054179;28;20484;-63
2022/10/07 10:49:27;;;;;;;6.45;1.15;;;29.50;48.60;;;;;;5045697;28;20026;-63
2022/10/07 10:52:19;;;;;;;7.35;2.10;;;31.20;45.90;;;;;;5052360;28;20021;-63
2022/10/07 10:55:20;;;;;;;6.28;1.52;;;31.90;42.10;;;;;;5054074;28;20013;-63
2022/10/07 10:58:01;;;;;;;4.10;1.30;;;32.40;42.60;;;;;;5050006;28;20114;-63
2022/10/07 11:00:39;;;;;;;4.72;1.27;;;33.30;41.90;;;;;;5054013;28;20021;-63
2022/10/07 11:03:35;;;;;;;5.32;1.38;;;34.80;40.70;;;;;;5048228;28;20021;-64
2022/10/07 11:06:06;;;;;;;3.88;1.10;;;36.80;39.60;;;;;;5049429;28;20070;-64
2022/10/07 11:08:35;;;;;;;8.20;2.13;;;38.50;37.00;;;;;;5044383;28;20043;-64
2022/10/07 11:11:31;;;;;;;5.22;1.65;;;39.40;36.20;;;;;;5046054;28;20017;-64
2022/10/07 11:14:09;;;;;;;8.45;2.25;;;38.90;32.50;;;;;;5035962;28;20398;-64
2022/10/07 11:16:55;;;;;;;3.13;1.30;;;37.30;33.50;;;;;;5032041;28;20056;-64
2022/10/07 11:19:36;;;;;;;8.02;2.47;;;37.80;34.80;;;;;;5065013;28;20025;-64
2022/10/07 11:22:02;;;;;;;4.30;1.80;;;38.60;33.20;;;;;;5040134;28;20021;-64
2022/10/07 11:24:40;;;;;;;5.25;1.75;;;38.10;32.30;;;;;;5066590;28;20099;-64
2022/10/07 11:27:33;;;;;;;6.38;1.85;;;37.60;32.60;;;;;;5061811;28;20112;-64
2022/10/07 11:30:15;;;;;;;4.68;1.70;;;36.90;33.30;;;;;;5062561;28;20066;-64
2022/10/07 11:32:48;;;;;;;5.47;1.60;;;37.90;33.80;;;;;;5058968;28;20017;-64
2022/10/07 11:35:24;;;;;;;4.68;1.58;;;39.40;32.70;;;;;;5050898;28;20381;-64
2022/10/07 11:38:01;;;;;;;6.95;1.75;;;40.00;32.00;;;;;;5050797;28;20075;-64
2022/10/07 11:40:30;;;;;;;5.10;1.52;;;40.00;30.70;;;;;;5052411;28;20025;-64
2022/10/07 11:43:13;;;;;;;6.90;1.90;;;38.50;30.90;;;;;;5056353;28;20947;-62
2022/10/07 11:45:48;;;;;;;7.03;2.20;;;37.80;32.00;;;;;;5049616;28;20091;-63
2022/10/07 11:48:20;;;;;;;5.38;1.60;;;37.90;31.90;;;;;;5049209;28;20067;-62
2022/10/07 11:51:02;;;;;;;6.03;1.65;;;37.50;31.70;;;;;;5049106;28;20102;-62
2022/10/07 11:53:33;;;;;;;4.95;1.80;;;37.10;32.10;;;;;;5048341;28;20025;-62
2022/10/07 11:56:21;;;;;;;6.13;1.75;;;37.80;32.20;;;;;;5047970;28;20196;-62
2022/10/07 11:58:54;;;;;;;;;;;37.70;32.00;;;;;;5046916;28;20067;-62
2022/10/07 12:01:29;;;;;;;6.05;1.27;;;38.10;32.40;;;;;;5044014;28;20319;-62
2022/10/07 12:04:00;;;;;;;5.68;1.83;;;39.10;32.20;;;;;;5048875;28;20400;-62
2022/10/07 12:06:26;;;;;;;5.15;1.77;;;39.50;30.30;;;;;;5036375;28;20489;-62
2022/10/07 12:08:52;;;;;;;4.45;1.50;;;37.40;31.60;;;;;;5045786;28;20046;-62
2022/10/07 12:11:18;;;;;;;4.38;1.38;;;36.50;32.60;;;;;;5046151;28;20056;-62
2022/10/07 12:13:44;;;;;;;4.88;1.60;;;37.00;32.70;;;;;;5041998;28;20080;-62
2022/10/07 12:16:28;;;;;;;3.88;1.65;;;37.70;32.30;;;;;;5046076;28;20018;-63
2022/10/07 12:19:06;;;;;;;7.38;2.00;;;38.30;31.60;;;;;;5042221;28;20022;-62
2022/10/07 12:22:03;;;;;;;8.60;2.00;;;37.50;31.30;;;;;;5047259;28;20113;-62
2022/10/07 12:24:31;;;;;;;5.30;1.77;;;35.90;32.30;;;;;;5046652;28;20028;-62
2022/10/07 12:27:05;;;;;;;4.40;1.45;;;35.90;32.40;;;;;;5047198;28;20530;-62
2022/10/07 12:29:47;;;;;;;6.80;1.60;;;36.10;32.40;;;;;;5045398;28;20053;-62
2022/10/07 12:32:45;;;;;;;5.88;2.05;;;36.40;32.30;;;;;;5046382;28;20017;-62
2022/10/07 12:35:33;;;;;;;5.63;1.98;;;36.40;32.00;;;;;;5047251;28;20049;-63
2022/10/07 12:38:23;;;;;;;4.28;1.88;;;35.70;32.70;;;;;;5047510;28;20033;-62
2022/10/07 12:41:24;;;;;;;8.23;2.13;;;35.80;32.30;;;;;;5048537;28;20113;-61
2022/10/07 12:44:26;;;;;;;4.53;1.30;;;33.90;33.10;;;;;;5039176;28;20092;-62
2022/10/07 12:46:59;;;;;;;6.43;1.60;;;32.40;35.30;;;;;;5046556;28;20082;-62
2022/10/07 12:49:36;;;;;;;5.13;1.80;;;30.80;36.40;;;;;;5046959;28;20551;-62
2022/10/07 12:52:29;;;;;;;6.63;1.90;;;29.80;37.90;;;;;;5036527;28;20029;-61
2022/10/07 12:55:06;;;;;;;5.53;2.10;;;29.10;38.90;;;;;;5034558;28;20485;-61
2022/10/07 12:57:38;;;;;;;5.65;1.63;;;29.50;39.00;;;;;;5034041;28;20040;-62
2022/10/07 13:00:12;;;;;;;5.57;1.70;;;30.00;39.50;;;;;;5022741;28;20105;-62
2022/10/07 13:03:23;;;;;;;6.80;2.08;;;31.10;38.20;;;;;;5034467;28;20028;-61
2022/10/07 13:06:08;;;;;;;8.57;2.53;;;31.30;36.70;;;;;;5034186;28;20426;-62
2022/10/07 13:08:50;;;;;;;5.13;1.20;;;31.10;37.60;;;;;;5034567;28;20071;-61
2022/10/07 13:11:43;;;;;;;3.95;1.10;;;30.80;38.00;;;;;;5022300;28;20044;-62
2022/10/07 13:14:09;;;;;;;4.57;1.48;;;31.80;37.50;;;;;;5033462;28;20021;-62
2022/10/07 13:16:46;;;;;;;5.85;1.60;;;32.60;36.60;;;;;;5034927;28;20124;-62
2022/10/07 13:19:18;;;;;;;5.65;1.45;;;32.90;36.00;;;;;;5034202;28;20108;-62
2022/10/07 13:22:08;;;;;;;4.88;1.50;;;32.60;36.00;;;;;;5034470;28;20032;-62
2022/10/07 13:24:37;;;;;;;6.60;1.40;;;32.20;35.60;;;;;;5034563;28;20026;-62